Time;durP1;ratioP1;P1;durP2;ratioP2;P2;SDS_P1;SDS_P2;PMS_P1;PMS_P2;Temp;Humidity;BMP_temperature;BMP_pressure;BME280_temperature;BME280_humidity;BME280_pressure;Samples;Min_cycle;Max_cycle;Signal;HPM_P1;HPM_P2
2021/03/31 00:01:20;;;;;;;11.60;7.87;;;7.20;74.80;;;;;;5037067;28;20053;-71
2021/03/31 00:03:46;;;;;;;12.90;8.07;;;7.20;74.90;;;;;;5059201;28;20036;-71
2021/03/31 00:06:12;;;;;;;13.20;8.20;;;7.10;75.50;;;;;;5058986;28;20044;-70
2021/03/31 00:08:38;;;;;;;13.20;8.70;;;7.10;75.70;;;;;;5062493;28;20086;-71
2021/03/31 00:11:05;;;;;;;10.73;8.00;;;7.10;76.20;;;;;;5065478;28;20047;-79
2021/03/31 00:13:31;;;;;;;12.65;8.07;;;7.20;75.90;;;;;;5057492;28;20699;-79
2021/03/31 00:15:57;;;;;;;12.15;8.30;;;7.20;76.90;;;;;;5054794;28;20072;-80
2021/03/31 00:18:23;;;;;;;11.13;8.13;;;7.20;76.30;;;;;;5057333;28;20044;-80
2021/03/31 00:20:50;;;;;;;10.77;7.63;;;7.10;76.70;;;;;;5061787;28;20513;-79
2021/03/31 00:23:25;;;;;;;12.93;8.90;;;7.00;76.90;;;;;;5061185;28;20065;-79
2021/03/31 00:25:51;;;;;;;11.93;8.73;;;7.00;77.10;;;;;;5052683;28;20037;-79
2021/03/31 00:28:18;;;;;;;13.87;7.90;;;6.90;76.80;;;;;;5059305;28;20052;-79
2021/03/31 00:30:44;;;;;;;13.30;8.10;;;6.90;77.50;;;;;;5060830;28;20094;-79
2021/03/31 00:33:11;;;;;;;10.77;7.20;;;6.90;77.70;;;;;;5066488;28;20036;-71
2021/03/31 00:35:38;;;;;;;10.98;6.53;;;6.90;78.00;;;;;;5054108;28;20040;-71
2021/03/31 00:38:06;;;;;;;13.93;8.20;;;6.80;78.10;;;;;;5061568;28;20052;-71
2021/03/31 00:40:48;;;;;;;13.65;8.40;;;6.80;77.80;;;;;;5054917;28;20064;-71
2021/03/31 00:43:15;;;;;;;13.15;8.38;;;6.90;77.80;;;;;;5052820;28;20041;-71
2021/03/31 00:45:45;;;;;;;13.57;8.97;;;6.90;77.10;;;;;;5060706;28;20040;-70
2021/03/31 00:48:16;;;;;;;12.00;10.02;;;7.00;76.50;;;;;;5062277;28;20652;-71
2021/03/31 00:50:46;;;;;;;13.27;9.07;;;7.00;76.10;;;;;;5066322;28;20071;-70
2021/03/31 00:53:19;;;;;;;13.13;9.87;;;7.00;76.20;;;;;;5064190;28;20056;-71
2021/03/31 00:55:46;;;;;;;13.48;9.57;;;7.00;76.70;;;;;;5065104;28;20044;-71
2021/03/31 00:58:13;;;;;;;13.53;10.13;;;7.00;76.20;;;;;;5065290;28;20045;-71
2021/03/31 01:00:39;;;;;;;13.73;9.60;;;7.00;76.40;;;;;;5063089;28;20044;-71
2021/03/31 01:03:05;;;;;;;12.70;9.87;;;7.00;76.70;;;;;;5063659;28;20037;-71
2021/03/31 01:05:32;;;;;;;13.37;9.53;;;6.90;77.60;;;;;;5045199;28;20144;-71
2021/03/31 01:07:58;;;;;;;11.93;8.73;;;6.90;77.80;;;;;;5055289;28;20029;-71
2021/03/31 01:10:47;;;;;;;15.27;10.17;;;6.80;78.20;;;;;;5058416;28;20042;-70
2021/03/31 01:13:23;;;;;;;13.50;10.03;;;6.80;79.30;;;;;;5075625;28;20036;-71
2021/03/31 01:16:11;;;;;;;14.60;9.67;;;6.70;78.70;;;;;;5060788;28;20040;-71
2021/03/31 01:18:49;;;;;;;11.97;9.47;;;6.70;78.40;;;;;;5057900;28;20043;-71
2021/03/31 01:21:30;;;;;;;14.67;9.47;;;6.70;78.70;;;;;;5058982;28;20063;-70
2021/03/31 01:24:15;;;;;;;;;;;6.70;79.00;;;;;;5059778;28;20033;-71
2021/03/31 01:27:05;;;;;;;15.33;9.73;;;6.70;79.30;;;;;;5059836;28;19981;-70
2021/03/31 01:29:52;;;;;;;14.27;8.57;;;6.70;78.50;;;;;;5056507;28;20124;-71
2021/03/31 01:32:39;;;;;;;14.00;10.07;;;6.80;78.00;;;;;;5057379;28;20097;-70
2021/03/31 01:35:09;;;;;;;14.10;9.77;;;6.80;77.50;;;;;;5056675;28;20043;-70
2021/03/31 01:37:54;;;;;;;13.05;9.48;;;6.80;77.40;;;;;;5056733;28;20131;-70
2021/03/31 01:40:23;;;;;;;14.43;10.03;;;6.80;77.40;;;;;;5060376;28;20479;-70
2021/03/31 01:42:58;;;;;;;13.80;10.47;;;6.60;77.70;;;;;;5085862;28;20093;-70
2021/03/31 01:45:28;;;;;;;15.47;10.07;;;6.60;78.90;;;;;;5074029;28;20044;-71
2021/03/31 01:47:58;;;;;;;15.82;10.32;;;6.50;78.60;;;;;;5078398;28;20606;-70
2021/03/31 01:50:25;;;;;;;16.07;10.33;;;6.50;79.30;;;;;;5079005;28;20029;-71
2021/03/31 01:52:51;;;;;;;15.67;10.30;;;6.50;79.20;;;;;;5047992;28;20045;-71
2021/03/31 01:55:18;;;;;;;17.20;9.90;;;6.60;79.80;;;;;;5061940;28;20040;-70
2021/03/31 01:57:48;;;;;;;14.40;10.23;;;6.50;79.30;;;;;;5058291;28;20661;-71
2021/03/31 02:00:17;;;;;;;14.20;9.50;;;6.50;79.00;;;;;;5043334;28;20060;-79
2021/03/31 02:02:48;;;;;;;13.87;9.37;;;6.50;79.30;;;;;;5078419;28;20029;-79
2021/03/31 02:05:14;;;;;;;;;;;6.40;79.10;;;;;;5058493;28;20071;-79
2021/03/31 02:07:40;;;;;;;16.83;10.00;;;6.30;79.20;;;;;;5062481;28;19920;-79
2021/03/31 02:10:12;;;;;;;11.80;8.87;;;6.20;79.40;;;;;;5095170;28;20483;-79
2021/03/31 02:12:40;;;;;;;14.50;10.27;;;6.20;80.10;;;;;;5095922;28;20037;-79
2021/03/31 02:15:08;;;;;;;13.97;10.57;;;6.10;79.80;;;;;;5057111;28;20580;-79
2021/03/31 02:17:35;;;;;;;14.97;10.77;;;6.10;80.00;;;;;;5062671;28;20064;-70
2021/03/31 02:20:03;;;;;;;15.17;11.37;;;6.10;79.90;;;;;;5062261;28;20123;-79
2021/03/31 02:22:30;;;;;;;17.33;11.43;;;6.10;80.00;;;;;;5060992;28;20123;-78
2021/03/31 02:24:57;;;;;;;19.30;13.13;;;6.10;79.70;;;;;;5044723;28;20045;-78
2021/03/31 02:27:23;;;;;;;17.60;12.87;;;6.10;79.50;;;;;;5059283;28;20479;-79
2021/03/31 02:29:50;;;;;;;17.27;10.77;;;6.20;79.00;;;;;;5063378;28;20086;-79
2021/03/31 02:32:21;;;;;;;18.03;11.77;;;6.20;78.70;;;;;;5062771;28;20384;-70
2021/03/31 02:34:52;;;;;;;17.93;12.37;;;6.20;79.00;;;;;;5096017;28;20040;-70
2021/03/31 02:37:20;;;;;;;15.93;11.07;;;6.20;78.70;;;;;;5061061;28;20084;-70
2021/03/31 02:39:48;;;;;;;14.13;10.50;;;6.20;78.90;;;;;;5063505;28;20032;-70
2021/03/31 02:42:18;;;;;;;18.63;11.90;;;6.20;78.40;;;;;;5057408;28;20099;-71
2021/03/31 02:44:51;;;;;;;15.03;11.00;;;6.10;78.40;;;;;;5061736;28;20056;-70
2021/03/31 02:47:21;;;;;;;15.80;10.43;;;6.00;79.20;;;;;;5061445;28;20101;-70
2021/03/31 02:49:50;;;;;;;21.38;12.63;;;5.90;79.20;;;;;;5054747;28;20063;-78
2021/03/31 02:52:18;;;;;;;16.80;11.13;;;5.80;79.20;;;;;;5060303;28;20028;-71
2021/03/31 02:54:45;;;;;;;17.07;11.97;;;5.90;79.10;;;;;;5060360;28;20037;-71
2021/03/31 02:57:11;;;;;;;18.67;11.90;;;5.90;79.40;;;;;;5062552;28;20402;-70
2021/03/31 02:59:41;;;;;;;17.33;12.33;;;5.90;79.30;;;;;;5063383;28;20044;-70
2021/03/31 03:02:09;;;;;;;19.20;12.13;;;5.90;79.20;;;;;;5059889;28;20079;-70
2021/03/31 03:04:37;;;;;;;17.87;12.37;;;5.90;79.10;;;;;;5061615;28;20047;-70
2021/03/31 03:07:06;;;;;;;19.60;12.53;;;5.80;79.00;;;;;;5054596;28;20032;-70
2021/03/31 03:09:32;;;;;;;20.20;13.03;;;5.70;79.20;;;;;;5061873;28;20403;-71
2021/03/31 03:11:59;;;;;;;19.07;12.23;;;5.60;79.70;;;;;;5059346;28;20086;-70
2021/03/31 03:14:29;;;;;;;18.47;12.67;;;5.50;80.40;;;;;;5061434;28;20095;-70
2021/03/31 03:16:55;;;;;;;18.80;12.05;;;5.40;81.00;;;;;;5061717;28;20121;-70
2021/03/31 03:19:21;;;;;;;16.30;11.70;;;5.30;81.40;;;;;;5052784;28;20048;-70
2021/03/31 03:21:50;;;;;;;19.03;13.67;;;5.30;81.80;;;;;;5057471;28;20105;-70
2021/03/31 03:24:17;;;;;;;19.10;12.67;;;5.20;81.70;;;;;;5062198;28;20094;-70
2021/03/31 03:26:43;;;;;;;20.63;14.93;;;5.10;81.90;;;;;;5060037;28;20043;-70
2021/03/31 03:29:10;;;;;;;18.10;12.50;;;5.10;82.30;;;;;;5059290;28;20040;-77
2021/03/31 03:31:37;;;;;;;19.73;12.50;;;5.10;82.10;;;;;;5059598;28;20542;-78
2021/03/31 03:34:08;;;;;;;18.87;13.53;;;5.10;82.20;;;;;;5061797;28;20045;-70
2021/03/31 03:36:35;;;;;;;20.17;13.70;;;5.10;82.60;;;;;;5058500;28;20096;-70
2021/03/31 03:39:04;;;;;;;20.07;13.40;;;5.00;82.60;;;;;;5059183;28;20033;-78
2021/03/31 03:41:30;;;;;;;21.27;12.67;;;5.00;82.80;;;;;;5059621;28;20037;-70
2021/03/31 03:43:56;;;;;;;20.67;13.07;;;5.00;83.50;;;;;;5063119;28;20055;-70
2021/03/31 03:46:22;;;;;;;22.90;13.60;;;5.00;83.40;;;;;;5060233;28;20442;-70
2021/03/31 03:48:48;;;;;;;19.50;13.37;;;5.00;84.00;;;;;;5061323;28;20047;-70
2021/03/31 03:51:15;;;;;;;17.90;12.20;;;5.00;84.60;;;;;;5057444;28;20040;-70
2021/03/31 03:53:41;;;;;;;20.33;13.77;;;4.90;84.10;;;;;;5059652;28;20194;-70
2021/03/31 03:56:12;;;;;;;20.43;14.17;;;5.00;84.40;;;;;;5041388;28;20119;-70
2021/03/31 03:58:39;;;;;;;19.42;12.93;;;5.00;84.20;;;;;;5076127;28;20056;-70
2021/03/31 04:01:06;;;;;;;19.23;13.20;;;5.00;83.70;;;;;;5055260;28;20118;-71
2021/03/31 04:03:32;;;;;;;23.70;14.70;;;5.10;83.80;;;;;;5043287;28;20127;-70
2021/03/31 04:05:58;;;;;;;19.23;13.13;;;5.10;83.50;;;;;;5062780;28;20056;-69
2021/03/31 04:08:24;;;;;;;19.77;14.03;;;5.10;83.10;;;;;;5057760;28;20044;-70
2021/03/31 04:10:56;;;;;;;21.70;14.63;;;5.10;83.00;;;;;;5062875;28;20043;-70
2021/03/31 04:13:23;;;;;;;22.10;15.17;;;5.10;83.00;;;;;;5090406;28;20060;-70
2021/03/31 04:15:56;;;;;;;20.80;13.53;;;5.10;83.00;;;;;;5094454;28;20609;-70
2021/03/31 04:18:23;;;;;;;23.67;14.40;;;5.00;83.40;;;;;;5057892;28;20918;-70
2021/03/31 04:20:51;;;;;;;21.67;14.97;;;5.00;83.70;;;;;;5060080;28;20052;-69
2021/03/31 04:23:17;;;;;;;21.97;14.63;;;5.00;83.80;;;;;;5063436;28;20047;-71
2021/03/31 04:25:43;;;;;;;18.97;14.17;;;5.00;83.80;;;;;;5090082;28;20039;-78
2021/03/31 04:28:12;;;;;;;24.47;15.13;;;5.00;84.10;;;;;;5044177;28;20044;-78
2021/03/31 04:30:40;;;;;;;23.07;15.00;;;4.90;84.70;;;;;;5091758;28;22064;-78
2021/03/31 04:33:09;;;;;;;20.83;14.37;;;5.00;84.50;;;;;;5060314;28;20078;-78
2021/03/31 04:35:35;;;;;;;21.60;15.40;;;5.00;84.40;;;;;;5057711;28;20046;-78
2021/03/31 04:38:13;;;;;;;23.97;17.33;;;5.00;83.80;;;;;;5060170;28;20606;-78
2021/03/31 04:40:49;;;;;;;23.33;15.97;;;5.10;83.90;;;;;;5058108;28;20116;-78
2021/03/31 04:43:15;;;;;;;28.97;17.83;;;5.10;83.70;;;;;;5056978;28;20128;-78
2021/03/31 04:45:40;;;;;;;26.40;17.10;;;5.10;83.40;;;;;;5061057;28;20150;-79
2021/03/31 04:48:06;;;;;;;22.87;15.50;;;5.10;83.80;;;;;;5057375;28;20491;-78
2021/03/31 04:50:32;;;;;;;27.67;17.50;;;5.10;83.50;;;;;;5072177;28;20040;-78
2021/03/31 04:52:58;;;;;;;27.00;17.47;;;5.10;84.00;;;;;;5056245;28;20061;-70
2021/03/31 04:55:24;;;;;;;26.93;16.23;;;5.10;83.30;;;;;;5054124;28;20562;-70
2021/03/31 04:57:50;;;;;;;21.87;15.40;;;5.20;83.40;;;;;;5041329;28;20036;-70
2021/03/31 05:00:17;;;;;;;27.47;17.70;;;5.20;83.10;;;;;;5057786;28;20645;-70
2021/03/31 05:02:43;;;;;;;29.17;20.13;;;5.20;82.90;;;;;;5055995;28;20063;-70
2021/03/31 05:05:09;;;;;;;26.80;17.93;;;5.10;82.70;;;;;;5045205;28;20490;-70
2021/03/31 05:07:35;;;;;;;28.10;18.63;;;5.20;82.80;;;;;;5074776;28;20051;-70
2021/03/31 05:10:01;;;;;;;30.73;19.30;;;5.20;82.70;;;;;;5058487;28;20041;-71
2021/03/31 05:12:27;;;;;;;27.70;17.03;;;5.20;82.30;;;;;;5057869;28;20060;-71
2021/03/31 05:14:53;;;;;;;27.47;18.50;;;5.30;82.60;;;;;;5054291;28;20111;-70
2021/03/31 05:17:19;;;;;;;29.00;18.93;;;5.30;83.00;;;;;;5053799;28;20064;-70
2021/03/31 05:19:45;;;;;;;28.67;18.53;;;5.30;83.10;;;;;;5056666;28;20044;-71
2021/03/31 05:22:11;;;;;;;31.30;18.10;;;5.30;83.20;;;;;;5060102;28;20054;-70
2021/03/31 05:24:36;;;;;;;27.87;17.50;;;5.40;82.90;;;;;;5061714;28;20056;-70
2021/03/31 05:27:03;;;;;;;30.37;19.53;;;5.50;82.50;;;;;;5062732;28;20186;-70
2021/03/31 05:29:29;;;;;;;29.03;18.90;;;5.70;81.60;;;;;;5046095;28;20530;-70
2021/03/31 05:31:55;;;;;;;25.70;18.63;;;6.00;80.40;;;;;;5063206;28;20037;-70
2021/03/31 05:34:20;;;;;;;27.80;18.27;;;6.20;79.60;;;;;;5046822;28;20047;-78
2021/03/31 05:36:46;;;;;;;28.37;18.93;;;6.20;79.30;;;;;;5063206;28;20719;-78
2021/03/31 05:39:12;;;;;;;33.70;19.40;;;6.30;78.80;;;;;;5063190;28;20067;-79
2021/03/31 05:41:38;;;;;;;27.30;19.23;;;6.50;77.70;;;;;;5065861;28;20055;-71
2021/03/31 05:44:05;;;;;;;28.03;17.70;;;6.90;76.60;;;;;;5070562;28;20619;-69
2021/03/31 05:46:32;;;;;;;32.23;20.23;;;7.10;75.20;;;;;;5083072;28;20518;-70
2021/03/31 05:48:58;;;;;;;29.27;19.23;;;7.40;73.80;;;;;;5067666;28;20043;-71
2021/03/31 05:51:24;;;;;;;29.80;19.37;;;7.60;72.80;;;;;;5068073;28;20115;-71
2021/03/31 05:53:50;;;;;;;29.10;19.63;;;7.80;72.20;;;;;;5067354;28;20139;-71
2021/03/31 05:56:16;;;;;;;33.00;19.37;;;7.80;72.10;;;;;;5064300;28;20553;-71
2021/03/31 05:58:43;;;;;;;32.47;20.93;;;7.90;71.60;;;;;;5065655;28;20037;-71
2021/03/31 06:01:09;;;;;;;28.80;18.50;;;8.00;71.40;;;;;;5064407;28;20877;-71
2021/03/31 06:03:35;;;;;;;28.83;19.33;;;8.10;70.90;;;;;;5064646;28;20037;-71
2021/03/31 06:06:01;;;;;;;28.20;19.33;;;8.20;71.20;;;;;;5064557;28;20036;-71
2021/03/31 06:08:28;;;;;;;29.57;20.17;;;8.20;70.70;;;;;;5064467;28;20544;-71
2021/03/31 06:10:59;;;;;;;33.47;21.20;;;8.30;70.70;;;;;;5064656;28;20497;-72
2021/03/31 06:13:26;;;;;;;33.30;19.27;;;8.40;70.60;;;;;;5056986;28;20124;-71
2021/03/31 06:15:52;;;;;;;31.73;20.77;;;8.50;70.50;;;;;;5058637;28;20447;-71
2021/03/31 06:18:19;;;;;;;33.77;19.53;;;8.60;70.00;;;;;;5093542;28;20044;-72
2021/03/31 06:21:00;;;;;;;30.97;20.93;;;8.70;69.60;;;;;;5087956;28;20119;-71
2021/03/31 06:26:28;;;;;;;31.30;19.90;;;8.80;68.60;;;;;;5058689;28;19928;-71
2021/03/31 06:29:10;;;;;;;32.37;21.00;;;8.90;68.70;;;;;;5074870;28;20499;-70
2021/03/31 06:31:47;;;;;;;26.50;19.60;;;9.00;68.60;;;;;;5056710;28;20561;-72
2021/03/31 06:34:20;;;;;;;31.27;20.53;;;9.00;67.50;;;;;;5078473;28;20041;-71
2021/03/31 06:36:50;;;;;;;31.10;20.03;;;9.10;67.30;;;;;;5059505;28;20726;-72
2021/03/31 06:39:19;;;;;;;34.97;21.35;;;9.20;67.20;;;;;;5058243;28;20161;-71
2021/03/31 06:42:01;;;;;;;31.90;20.50;;;9.20;66.90;;;;;;5061097;28;20588;-70
2021/03/31 06:49:58;;;;;;;29.40;20.83;;;9.50;67.20;;;;;;5062487;28;20058;-71
2021/03/31 06:52:23;;;;;;;31.73;21.10;;;9.50;67.20;;;;;;5063554;28;20036;-70
2021/03/31 06:54:57;;;;;;;28.73;19.83;;;9.60;67.20;;;;;;5059368;28;20407;-72
2021/03/31 06:57:28;;;;;;;28.63;21.30;;;9.70;67.10;;;;;;5061775;28;20064;-72
2021/03/31 06:59:57;;;;;;;29.80;21.20;;;9.80;67.00;;;;;;5060959;28;20040;-72
2021/03/31 07:02:26;;;;;;;29.63;20.88;;;9.90;67.00;;;;;;5061261;28;20044;-72
2021/03/31 07:04:56;;;;;;;27.27;18.80;;;10.00;67.00;;;;;;5073124;28;20104;-72
2021/03/31 07:07:37;;;;;;;30.13;19.60;;;10.20;66.90;;;;;;5077443;28;20102;-72
2021/03/31 07:10:05;;;;;;;30.85;20.35;;;10.40;66.80;;;;;;5094285;28;20657;-72
2021/03/31 07:12:56;;;;;;;29.50;20.70;;;10.50;66.00;;;;;;5091914;28;20052;-72
2021/03/31 07:15:24;;;;;;;;;;;10.70;64.60;;;;;;5059483;28;20052;-72
2021/03/31 07:17:58;;;;;;;31.73;21.00;;;10.90;63.50;;;;;;5062923;28;19935;-72
2021/03/31 07:20:26;;;;;;;30.00;20.38;;;11.10;63.80;;;;;;5065003;28;20040;-73
2021/03/31 07:22:53;;;;;;;30.85;19.40;;;11.30;62.80;;;;;;5063009;28;20048;-72
2021/03/31 07:25:22;;;;;;;30.83;19.92;;;11.50;62.10;;;;;;5063432;28;20052;-72
2021/03/31 07:27:51;;;;;;;32.20;21.02;;;11.70;61.30;;;;;;5065450;28;20068;-72
2021/03/31 07:30:22;;;;;;;33.00;20.05;;;11.90;60.50;;;;;;5060615;28;20137;-72
2021/03/31 07:33:11;;;;;;;31.20;20.27;;;12.10;60.40;;;;;;5060756;28;20739;-72
2021/03/31 07:35:37;;;;;;;30.50;21.88;;;12.30;59.80;;;;;;5077700;28;20041;-72
2021/03/31 07:38:05;;;;;;;32.85;21.67;;;12.50;60.00;;;;;;5060847;28;20829;-72
2021/03/31 07:40:32;;;;;;;29.52;20.52;;;12.70;59.20;;;;;;5065193;28;20043;-73
2021/03/31 07:43:06;;;;;;;29.02;19.85;;;12.80;59.00;;;;;;5061347;28;20040;-72
2021/03/31 07:45:49;;;;;;;31.75;22.02;;;12.90;58.30;;;;;;5063914;28;20391;-79
2021/03/31 07:48:16;;;;;;;29.70;20.33;;;13.10;56.70;;;;;;5080418;28;20072;-79
2021/03/31 07:50:43;;;;;;;29.85;20.73;;;13.20;56.90;;;;;;5061622;28;20043;-79
2021/03/31 07:53:08;;;;;;;29.92;21.50;;;13.30;56.30;;;;;;5078189;28;20746;-79
2021/03/31 07:55:39;;;;;;;28.13;20.30;;;13.50;56.50;;;;;;5064096;28;20120;-79
2021/03/31 07:58:16;;;;;;;35.03;21.20;;;13.60;55.80;;;;;;5059029;28;20076;-72
2021/03/31 08:03:16;;;;;;;30.02;21.02;;;13.90;55.50;;;;;;5060494;28;20049;-72
2021/03/31 08:06:10;;;;;;;28.58;20.98;;;14.10;55.20;;;;;;5058230;28;20037;-72
2021/03/31 08:08:49;;;;;;;31.60;20.98;;;14.20;55.30;;;;;;5058051;28;20052;-72
2021/03/31 08:11:41;;;;;;;32.17;22.75;;;14.40;55.00;;;;;;5040621;28;20056;-72
2021/03/31 08:14:09;;;;;;;29.58;22.02;;;14.70;55.70;;;;;;5076591;28;20035;-72
2021/03/31 08:16:44;;;;;;;30.23;22.63;;;14.90;55.00;;;;;;5095918;28;20304;-72
2021/03/31 08:19:25;;;;;;;33.65;23.33;;;15.00;55.00;;;;;;5062588;28;20046;-72
2021/03/31 08:21:53;;;;;;;30.17;21.77;;;15.20;54.80;;;;;;5059126;28;20461;-73
2021/03/31 08:24:43;;;;;;;26.73;20.05;;;15.40;54.50;;;;;;5058405;28;20078;-79
2021/03/31 08:27:09;;;;;;;30.75;21.45;;;15.50;54.60;;;;;;5051872;28;20105;-73
2021/03/31 08:29:35;;;;;;;31.90;22.83;;;15.60;54.30;;;;;;5056934;28;20036;-73
2021/03/31 08:32:05;;;;;;;33.25;23.38;;;15.80;54.10;;;;;;5059699;28;20390;-72
2021/03/31 08:34:31;;;;;;;30.92;23.08;;;15.80;53.60;;;;;;5056131;28;20040;-80
2021/03/31 08:37:02;;;;;;;33.85;22.63;;;15.90;53.90;;;;;;5060609;28;20036;-80
2021/03/31 08:39:28;;;;;;;30.17;21.98;;;15.90;53.90;;;;;;5062681;28;20043;-80
2021/03/31 08:41:56;;;;;;;31.15;21.58;;;16.10;54.30;;;;;;5060418;28;20552;-80
2021/03/31 08:44:28;;;;;;;31.83;22.17;;;16.30;54.10;;;;;;5062955;28;20100;-73
2021/03/31 08:47:12;;;;;;;29.90;22.60;;;16.50;53.60;;;;;;5059927;28;20699;-73
2021/03/31 08:49:39;;;;;;;29.48;22.52;;;16.70;53.00;;;;;;5062437;28;20037;-73
2021/03/31 08:52:14;;;;;;;31.05;22.55;;;16.80;52.90;;;;;;5060076;28;20051;-73
2021/03/31 08:54:44;;;;;;;32.80;23.38;;;17.00;52.10;;;;;;5066621;28;20029;-73
2021/03/31 08:57:14;;;;;;;32.55;23.50;;;17.10;52.00;;;;;;5065293;28;20067;-73
2021/03/31 08:59:42;;;;;;;29.55;22.45;;;17.20;52.20;;;;;;5069762;28;20048;-72
2021/03/31 09:02:09;;;;;;;31.60;22.17;;;17.40;51.10;;;;;;5063129;28;20131;-80
2021/03/31 09:04:35;;;;;;;30.75;22.58;;;17.50;51.00;;;;;;5065811;28;20037;-72
2021/03/31 09:07:05;;;;;;;32.20;23.40;;;17.50;50.70;;;;;;5063892;28;20041;-73
2021/03/31 09:09:42;;;;;;;33.90;23.05;;;17.60;51.50;;;;;;5066822;28;20074;-73
2021/03/31 09:12:13;;;;;;;32.95;24.00;;;17.70;49.90;;;;;;5069118;28;20058;-73
2021/03/31 09:14:41;;;;;;;30.98;24.30;;;17.70;49.00;;;;;;5081207;28;20090;-72
2021/03/31 09:17:16;;;;;;;33.78;24.95;;;17.80;48.90;;;;;;5067975;28;20044;-72
2021/03/31 09:19:43;;;;;;;34.38;23.38;;;17.90;48.80;;;;;;5068369;28;20036;-73
2021/03/31 09:22:15;;;;;;;32.28;22.77;;;18.00;48.70;;;;;;5082137;28;20047;-73
2021/03/31 09:24:42;;;;;;;32.55;24.88;;;18.00;49.50;;;;;;5065165;28;20036;-73
2021/03/31 09:27:29;;;;;;;28.08;21.73;;;18.10;49.50;;;;;;5065957;28;20040;-73
2021/03/31 09:29:56;;;;;;;30.92;23.52;;;18.40;49.70;;;;;;5094773;28;20037;-73
2021/03/31 09:34:52;;;;;;;29.30;23.98;;;18.80;49.30;;;;;;5064543;28;20040;-73
2021/03/31 09:37:19;;;;;;;35.28;25.38;;;19.00;48.70;;;;;;5063103;28;20052;-73
2021/03/31 09:39:49;;;;;;;31.88;24.58;;;18.90;47.80;;;;;;5062929;28;20617;-73
2021/03/31 09:42:31;;;;;;;29.20;23.30;;;18.90;47.40;;;;;;5096589;27;20044;-73
2021/03/31 09:44:58;;;;;;;32.45;24.80;;;18.90;49.60;;;;;;5079701;28;20036;-73
2021/03/31 09:47:25;;;;;;;30.65;24.65;;;19.10;49.40;;;;;;5077727;28;20041;-73
2021/03/31 09:49:53;;;;;;;30.77;23.75;;;19.20;48.40;;;;;;5078334;28;20101;-72
2021/03/31 09:52:30;;;;;;;31.40;23.45;;;19.50;47.60;;;;;;5062208;28;20119;-73
2021/03/31 09:55:09;;;;;;;29.67;23.33;;;19.80;47.20;;;;;;5058536;28;20795;-72
2021/03/31 09:57:37;;;;;;;30.75;24.25;;;20.00;46.30;;;;;;5058999;28;20033;-73
2021/03/31 10:00:09;;;;;;;30.70;22.67;;;20.10;46.50;;;;;;5055864;28;20119;-73
2021/03/31 10:02:36;;;;;;;33.17;23.85;;;20.30;46.00;;;;;;5062374;28;20123;-73
2021/03/31 10:05:09;;;;;;;30.40;23.63;;;20.40;45.00;;;;;;5073941;28;20480;-73
2021/03/31 10:07:36;;;;;;;31.40;24.90;;;20.60;44.40;;;;;;5075218;28;20075;-73
2021/03/31 10:10:03;;;;;;;35.47;24.25;;;20.70;43.80;;;;;;5060552;28;20752;-81
2021/03/31 10:12:32;;;;;;;36.13;25.55;;;20.80;43.90;;;;;;5056561;28;20476;-73
2021/03/31 10:15:00;;;;;;;31.80;24.58;;;21.00;43.80;;;;;;5056545;28;20082;-74
2021/03/31 10:17:28;;;;;;;34.40;25.23;;;21.10;44.70;;;;;;5061984;28;20037;-74
2021/03/31 10:20:05;;;;;;;35.33;26.38;;;21.20;43.30;;;;;;5063879;28;20037;-82
2021/03/31 10:22:31;;;;;;;33.25;25.30;;;21.30;42.40;;;;;;5079011;28;20049;-81
2021/03/31 10:24:57;;;;;;;33.72;26.02;;;21.30;42.60;;;;;;5062606;28;20102;-81
2021/03/31 10:27:41;;;;;;;35.38;26.52;;;21.20;42.80;;;;;;5065215;28;20496;-82
2021/03/31 10:30:08;;;;;;;36.70;26.70;;;21.20;42.30;;;;;;5061451;28;20032;-82
2021/03/31 10:32:34;;;;;;;33.90;23.98;;;21.40;42.50;;;;;;5064361;28;20040;-82
2021/03/31 10:34:59;;;;;;;32.88;24.73;;;21.50;42.60;;;;;;5063706;28;20112;-82
2021/03/31 10:51:14;;;;;;;37.58;26.00;;;21.60;40.00;;;;;;5066300;28;20060;-82
2021/03/31 10:53:45;;;;;;;35.92;25.70;;;21.80;40.50;;;;;;5064446;28;20040;-81
2021/03/31 10:56:12;;;;;;;32.58;24.63;;;21.80;38.10;;;;;;5064001;28;20051;-82
2021/03/31 10:58:41;;;;;;;33.47;24.85;;;21.80;36.70;;;;;;5063944;28;20079;-82
2021/03/31 11:01:07;;;;;;;34.13;22.90;;;21.90;38.80;;;;;;5075098;28;20036;-82
2021/03/31 11:03:33;;;;;;;35.35;23.25;;;22.00;36.60;;;;;;5062616;28;20045;-82
2021/03/31 11:05:59;;;;;;;33.90;24.65;;;22.10;37.30;;;;;;5065669;28;20036;-82
2021/03/31 11:08:25;;;;;;;38.30;26.23;;;22.30;37.00;;;;;;5064549;28;20592;-83
2021/03/31 11:10:51;;;;;;;33.72;24.90;;;22.30;37.30;;;;;;5067659;28;22206;-75
2021/03/31 11:13:18;;;;;;;35.97;27.10;;;22.50;38.30;;;;;;5057363;28;20040;-74
2021/03/31 11:15:44;;;;;;;33.88;24.63;;;22.60;38.50;;;;;;5060071;28;20144;-74
2021/03/31 11:26:33;;;;;;;40.17;27.77;;;22.70;39.90;;;;;;5060089;28;20080;-74
2021/03/31 11:29:19;;;;;;;36.90;26.52;;;22.70;40.20;;;;;;5048607;28;20044;-74
2021/03/31 11:32:06;;;;;;;40.70;27.88;;;22.60;39.50;;;;;;5060919;28;20291;-74
2021/03/31 11:34:32;;;;;;;36.78;26.60;;;22.60;40.20;;;;;;5063362;28;20116;-75
2021/03/31 11:37:18;;;;;;;37.65;26.33;;;22.70;41.70;;;;;;5059596;28;20064;-74
2021/03/31 11:40:05;;;;;;;41.67;28.00;;;22.90;38.50;;;;;;5058875;28;20110;-74
2021/03/31 11:42:31;;;;;;;39.40;27.52;;;22.90;37.10;;;;;;5075235;28;20039;-83
2021/03/31 11:44:57;;;;;;;39.38;27.98;;;22.90;36.90;;;;;;5062374;28;20048;-83
2021/03/31 11:47:22;;;;;;;37.53;27.98;;;22.90;38.20;;;;;;5058658;28;20047;-83
2021/03/31 11:49:49;;;;;;;38.38;28.63;;;23.00;36.00;;;;;;5046843;28;20049;-83
2021/03/31 11:52:18;;;;;;;39.65;28.58;;;23.00;37.00;;;;;;5064410;28;20479;-83
2021/03/31 11:54:44;;;;;;;40.03;27.45;;;23.10;38.40;;;;;;5063768;28;20151;-84
2021/03/31 11:57:10;;;;;;;38.30;27.95;;;23.20;37.10;;;;;;5061762;28;20119;-83
2021/03/31 11:59:36;;;;;;;35.78;27.73;;;23.30;38.00;;;;;;5058687;28;20048;-74
2021/03/31 12:02:02;;;;;;;36.10;27.35;;;23.40;37.30;;;;;;5057443;28;20658;-74
2021/03/31 12:04:28;;;;;;;38.35;28.55;;;23.50;38.10;;;;;;5056917;28;20526;-75
2021/03/31 12:07:15;;;;;;;35.05;24.55;;;23.50;38.60;;;;;;5055011;28;20076;-83
2021/03/31 12:09:42;;;;;;;37.15;25.60;;;23.60;32.30;;;;;;5064153;28;20033;-84
2021/03/31 12:12:27;;;;;;;36.10;24.27;;;23.50;31.20;;;;;;5059396;28;20508;-83
2021/03/31 12:14:53;;;;;;;34.33;24.90;;;23.50;33.60;;;;;;5047831;28;20049;-84
2021/03/31 12:17:20;;;;;;;31.98;24.08;;;23.60;32.20;;;;;;5063472;28;20036;-83
2021/03/31 12:20:08;;;;;;;31.27;22.15;;;23.70;32.20;;;;;;5061425;28;20525;-83
2021/03/31 12:22:33;;;;;;;33.78;24.58;;;23.80;32.20;;;;;;5064363;28;20338;-84
2021/03/31 12:24:59;;;;;;;29.02;23.75;;;24.00;33.10;;;;;;5061930;28;20494;-84
2021/03/31 12:27:26;;;;;;;21.67;17.60;;;24.10;32.70;;;;;;5063267;28;20117;-84
2021/03/31 12:30:14;;;;;;;30.83;23.55;;;24.10;28.80;;;;;;5048692;28;20158;-85
2021/03/31 12:32:40;;;;;;;32.45;24.75;;;24.20;29.60;;;;;;5094213;28;20405;-85
2021/03/31 12:35:26;;;;;;;32.80;23.55;;;24.20;30.70;;;;;;5057956;28;20044;-75
2021/03/31 12:37:54;;;;;;;40.40;26.88;;;24.30;31.80;;;;;;5059966;28;20044;-75
2021/03/31 12:40:20;;;;;;;32.58;23.80;;;24.20;30.50;;;;;;5060652;28;20051;-75
2021/03/31 12:43:08;;;;;;;28.63;23.23;;;24.10;31.80;;;;;;5059686;28;20078;-74
2021/03/31 12:45:54;;;;;;;33.80;26.63;;;24.20;31.50;;;;;;5044928;28;20084;-75
2021/03/31 12:48:23;;;;;;;34.13;27.98;;;24.40;32.10;;;;;;5059461;28;20087;-74
2021/03/31 12:50:53;;;;;;;35.35;27.25;;;24.50;34.00;;;;;;5076316;28;20383;-75
2021/03/31 12:56:51;;;;;;;35.28;25.63;;;24.70;32.00;;;;;;5036863;28;20052;-75
2021/03/31 12:59:18;;;;;;;35.90;27.35;;;24.70;31.50;;;;;;5075184;28;20094;-75
2021/03/31 13:02:07;;;;;;;;;;;24.80;32.50;;;;;;5034470;28;20041;-75
2021/03/31 13:04:33;;;;;;;36.72;26.75;;;24.90;32.10;;;;;;5059214;28;19920;-75
2021/03/31 13:07:19;;;;;;;35.50;27.25;;;25.00;33.10;;;;;;5060675;28;20044;-75
2021/03/31 13:09:46;;;;;;;33.40;26.33;;;25.00;31.90;;;;;;5053277;28;20063;-76
2021/03/31 13:12:34;;;;;;;35.20;25.48;;;25.00;31.10;;;;;;5058290;28;20412;-75
2021/03/31 13:22:59;;;;;;;34.70;24.70;;;25.10;29.50;;;;;;5063249;28;20036;-74
2021/03/31 13:31:39;;;;;;;16.00;12.02;;;25.40;29.50;;;;;;5057827;28;20752;-75
2021/03/31 13:34:04;;;;;;;13.60;10.07;;;25.40;28.90;;;;;;5056705;28;20407;-75
2021/03/31 13:36:40;;;;;;;19.80;15.77;;;25.30;27.20;;;;;;5093807;28;20063;-75
2021/03/31 13:39:34;;;;;;;19.85;15.55;;;25.30;26.40;;;;;;5051189;28;20044;-74
2021/03/31 13:42:21;;;;;;;20.85;15.77;;;25.20;26.40;;;;;;5066864;28;20052;-74
2021/03/31 13:44:47;;;;;;;21.35;16.15;;;25.20;27.20;;;;;;5067967;28;20054;-75